sensor_id;sensor_type;location;lat;lon;timestamp;temperature;humidity
19880;DHT22;10102;50.828;4.416;2023-06-10T00:00:40;24.50;96.20
19880;DHT22;10102;50.828;4.416;2023-06-10T00:03:10;24.40;98.70
19880;DHT22;10102;50.828;4.416;2023-06-10T00:05:36;24.30;98.90
19880;DHT22;10102;50.828;4.416;2023-06-10T00:08:07;24.20;99.20
19880;DHT22;10102;50.828;4.416;2023-06-10T00:10:37;24.20;99.30
19880;DHT22;10102;50.828;4.416;2023-06-10T00:13:05;24.00;99.40
19880;DHT22;10102;50.828;4.416;2023-06-10T00:15:31;23.90;97.90
19880;DHT22;10102;50.828;4.416;2023-06-10T00:17:57;24.20;99.80
19880;DHT22;10102;50.828;4.416;2023-06-10T00:20:23;24.10;96.50
19880;DHT22;10102;50.828;4.416;2023-06-10T00:22:49;23.90;93.20
19880;DHT22;10102;50.828;4.416;2023-06-10T00:25:15;23.90;99.90
19880;DHT22;10102;50.828;4.416;2023-06-10T00:27:41;23.90;99.40
19880;DHT22;10102;50.828;4.416;2023-06-10T00:30:07;23.80;99.90
19880;DHT22;10102;50.828;4.416;2023-06-10T00:32:34;23.90;93.60
19880;DHT22;10102;50.828;4.416;2023-06-10T00:35:00;23.70;99.90
19880;DHT22;10102;50.828;4.416;2023-06-10T00:37:25;23.70;97.10
19880;DHT22;10102;50.828;4.416;2023-06-10T00:39:51;23.90;99.90
19880;DHT22;10102;50.828;4.416;2023-06-10T00:42:17;23.80;98.00
19880;DHT22;10102;50.828;4.416;2023-06-10T00:44:43;23.60;99.90
19880;DHT22;10102;50.828;4.416;2023-06-10T00:47:08;23.70;99.90
19880;DHT22;10102;50.828;4.416;2023-06-10T00:49:34;23.60;99.90
19880;DHT22;10102;50.828;4.416;2023-06-10T00:52:02;23.70;99.30
19880;DHT22;10102;50.828;4.416;2023-06-10T00:54:29;23.70;99.90
19880;DHT22;10102;50.828;4.416;2023-06-10T00:56:55;23.50;98.90
19880;DHT22;10102;50.828;4.416;2023-06-10T00:59:21;23.70;99.90
19880;DHT22;10102;50.828;4.416;2023-06-10T01:04:13;23.80;99.90
19880;DHT22;10102;50.828;4.416;2023-06-10T01:06:54;23.40;99.90
19880;DHT22;10102;50.828;4.416;2023-06-10T01:14:42;23.40;99.90
19880;DHT22;10102;50.828;4.416;2023-06-10T01:17:10;23.30;99.90
19880;DHT22;10102;50.828;4.416;2023-06-10T01:19:37;23.20;99.90
19880;DHT22;10102;50.828;4.416;2023-06-10T01:22:03;23.30;99.90
19880;DHT22;10102;50.828;4.416;2023-06-10T01:24:29;22.90;99.90
19880;DHT22;10102;50.828;4.416;2023-06-10T01:27:00;23.20;99.90
19880;DHT22;10102;50.828;4.416;2023-06-10T01:29:32;23.00;99.90
19880;DHT22;10102;50.828;4.416;2023-06-10T01:32:17;22.90;99.90
19880;DHT22;10102;50.828;4.416;2023-06-10T01:34:44;22.80;99.90
19880;DHT22;10102;50.828;4.416;2023-06-10T01:37:13;23.00;99.90
19880;DHT22;10102;50.828;4.416;2023-06-10T01:39:42;22.90;99.90
19880;DHT22;10102;50.828;4.416;2023-06-10T01:42:10;22.90;99.90
19880;DHT22;10102;50.828;4.416;2023-06-10T01:44:36;23.00;99.90
19880;DHT22;10102;50.828;4.416;2023-06-10T01:49:30;23.00;99.90
19880;DHT22;10102;50.828;4.416;2023-06-10T01:51:55;22.80;99.90
19880;DHT22;10102;50.828;4.416;2023-06-10T01:54:21;22.80;99.90
19880;DHT22;10102;50.828;4.416;2023-06-10T01:56:47;22.90;99.90
19880;DHT22;10102;50.828;4.416;2023-06-10T01:59:12;22.90;99.90
19880;DHT22;10102;50.828;4.416;2023-06-10T02:01:38;22.90;99.90
19880;DHT22;10102;50.828;4.416;2023-06-10T02:04:03;22.60;99.90
19880;DHT22;10102;50.828;4.416;2023-06-10T02:06:29;22.70;99.90
19880;DHT22;10102;50.828;4.416;2023-06-10T02:08:55;22.50;99.90
19880;DHT22;10102;50.828;4.416;2023-06-10T02:11:21;22.40;99.90
19880;DHT22;10102;50.828;4.416;2023-06-10T02:13:47;22.50;99.90
19880;DHT22;10102;50.828;4.416;2023-06-10T02:16:13;22.30;99.90
19880;DHT22;10102;50.828;4.416;2023-06-10T02:18:41;22.30;99.90
19880;DHT22;10102;50.828;4.416;2023-06-10T02:21:08;22.30;99.90
19880;DHT22;10102;50.828;4.416;2023-06-10T02:23:34;22.50;99.90
19880;DHT22;10102;50.828;4.416;2023-06-10T02:26:00;22.40;99.90
19880;DHT22;10102;50.828;4.416;2023-06-10T02:28:26;22.30;99.90
19880;DHT22;10102;50.828;4.416;2023-06-10T02:30:51;22.10;99.90
19880;DHT22;10102;50.828;4.416;2023-06-10T02:33:17;22.00;99.90
19880;DHT22;10102;50.828;4.416;2023-06-10T02:35:43;22.10;99.90
19880;DHT22;10102;50.828;4.416;2023-06-10T02:38:09;22.40;99.90
19880;DHT22;10102;50.828;4.416;2023-06-10T02:40:35;21.80;99.90
19880;DHT22;10102;50.828;4.416;2023-06-10T02:43:00;21.90;99.90
19880;DHT22;10102;50.828;4.416;2023-06-10T02:45:26;22.10;99.90
19880;DHT22;10102;50.828;4.416;2023-06-10T02:47:52;21.70;99.90
19880;DHT22;10102;50.828;4.416;2023-06-10T02:52:43;21.80;99.90
19880;DHT22;10102;50.828;4.416;2023-06-10T02:55:09;21.80;99.90
19880;DHT22;10102;50.828;4.416;2023-06-10T02:57:35;21.70;99.90
19880;DHT22;10102;50.828;4.416;2023-06-10T03:02:29;21.90;99.90
19880;DHT22;10102;50.828;4.416;2023-06-10T03:04:55;21.80;99.90
19880;DHT22;10102;50.828;4.416;2023-06-10T03:07:21;21.90;99.90
19880;DHT22;10102;50.828;4.416;2023-06-10T03:09:47;21.50;99.90
19880;DHT22;10102;50.828;4.416;2023-06-10T03:12:12;21.60;99.90
19880;DHT22;10102;50.828;4.416;2023-06-10T03:14:38;21.60;99.90
19880;DHT22;10102;50.828;4.416;2023-06-10T03:17:05;21.60;99.90
19880;DHT22;10102;50.828;4.416;2023-06-10T03:19:31;21.40;99.90
19880;DHT22;10102;50.828;4.416;2023-06-10T03:22:10;21.50;99.90
19880;DHT22;10102;50.828;4.416;2023-06-10T03:24:36;21.30;99.90
19880;DHT22;10102;50.828;4.416;2023-06-10T03:27:08;21.20;99.90
19880;DHT22;10102;50.828;4.416;2023-06-10T03:29:35;21.50;99.90
19880;DHT22;10102;50.828;4.416;2023-06-10T03:32:01;21.40;99.90
19880;DHT22;10102;50.828;4.416;2023-06-10T03:34:27;21.50;99.90
19880;DHT22;10102;50.828;4.416;2023-06-10T03:36:53;21.20;99.90
19880;DHT22;10102;50.828;4.416;2023-06-10T03:39:18;21.30;99.90
19880;DHT22;10102;50.828;4.416;2023-06-10T03:41:44;21.40;99.90
19880;DHT22;10102;50.828;4.416;2023-06-10T03:44:10;20.90;99.90
19880;DHT22;10102;50.828;4.416;2023-06-10T03:46:35;21.00;99.90
19880;DHT22;10102;50.828;4.416;2023-06-10T03:51:29;21.10;99.90
19880;DHT22;10102;50.828;4.416;2023-06-10T03:53:55;21.20;99.90
19880;DHT22;10102;50.828;4.416;2023-06-10T03:56:21;21.50;99.90
19880;DHT22;10102;50.828;4.416;2023-06-10T03:58:46;21.20;99.90
19880;DHT22;10102;50.828;4.416;2023-06-10T04:01:14;21.20;99.90
19880;DHT22;10102;50.828;4.416;2023-06-10T04:03:40;21.20;99.90
19880;DHT22;10102;50.828;4.416;2023-06-10T04:08:33;21.20;99.90
19880;DHT22;10102;50.828;4.416;2023-06-10T04:10:59;21.10;99.90
19880;DHT22;10102;50.828;4.416;2023-06-10T04:13:24;21.10;99.90
19880;DHT22;10102;50.828;4.416;2023-06-10T04:15:50;21.60;99.90
19880;DHT22;10102;50.828;4.416;2023-06-10T04:18:16;21.30;99.90
19880;DHT22;10102;50.828;4.416;2023-06-10T04:20:42;21.10;99.90
19880;DHT22;10102;50.828;4.416;2023-06-10T04:23:09;21.00;99.90
19880;DHT22;10102;50.828;4.416;2023-06-10T04:28:01;21.50;99.90
19880;DHT22;10102;50.828;4.416;2023-06-10T04:30:27;21.20;99.90
19880;DHT22;10102;50.828;4.416;2023-06-10T04:32:52;21.60;99.90
19880;DHT22;10102;50.828;4.416;2023-06-10T04:35:18;21.60;99.90
19880;DHT22;10102;50.828;4.416;2023-06-10T04:37:44;21.70;99.90
19880;DHT22;10102;50.828;4.416;2023-06-10T04:40:11;21.70;99.90
19880;DHT22;10102;50.828;4.416;2023-06-10T04:42:37;21.80;99.90
19880;DHT22;10102;50.828;4.416;2023-06-10T04:45:03;21.70;99.90
19880;DHT22;10102;50.828;4.416;2023-06-10T04:47:31;21.90;99.90
19880;DHT22;10102;50.828;4.416;2023-06-10T04:50:02;22.00;99.90
19880;DHT22;10102;50.828;4.416;2023-06-10T04:52:28;22.00;99.90
19880;DHT22;10102;50.828;4.416;2023-06-10T04:54:54;22.00;99.90
19880;DHT22;10102;50.828;4.416;2023-06-10T04:57:20;22.00;99.90
19880;DHT22;10102;50.828;4.416;2023-06-10T04:59:47;22.00;99.90
19880;DHT22;10102;50.828;4.416;2023-06-10T05:02:13;22.00;99.90
19880;DHT22;10102;50.828;4.416;2023-06-10T05:04:39;22.30;99.90
19880;DHT22;10102;50.828;4.416;2023-06-10T05:07:29;22.10;99.90
19880;DHT22;10102;50.828;4.416;2023-06-10T05:09:55;22.00;99.90
19880;DHT22;10102;50.828;4.416;2023-06-10T05:12:20;22.40;99.90
19880;DHT22;10102;50.828;4.416;2023-06-10T05:14:46;22.10;99.90
19880;DHT22;10102;50.828;4.416;2023-06-10T05:19:38;22.30;99.90
19880;DHT22;10102;50.828;4.416;2023-06-10T05:22:04;22.60;99.90
19880;DHT22;10102;50.828;4.416;2023-06-10T05:24:30;22.30;99.90
19880;DHT22;10102;50.828;4.416;2023-06-10T05:26:55;22.70;99.90
19880;DHT22;10102;50.828;4.416;2023-06-10T05:29:21;22.70;99.90
19880;DHT22;10102;50.828;4.416;2023-06-10T05:31:47;22.70;99.90
19880;DHT22;10102;50.828;4.416;2023-06-10T05:34:13;22.90;99.90
19880;DHT22;10102;50.828;4.416;2023-06-10T05:36:38;23.10;99.90
19880;DHT22;10102;50.828;4.416;2023-06-10T05:39:04;23.20;99.90
19880;DHT22;10102;50.828;4.416;2023-06-10T05:41:31;23.10;99.90
19880;DHT22;10102;50.828;4.416;2023-06-10T05:43:56;23.50;99.90
19880;DHT22;10102;50.828;4.416;2023-06-10T05:46:23;23.30;99.90
19880;DHT22;10102;50.828;4.416;2023-06-10T05:48:49;23.50;99.90
19880;DHT22;10102;50.828;4.416;2023-06-10T05:51:15;23.40;99.90
19880;DHT22;10102;50.828;4.416;2023-06-10T05:53:40;23.50;99.90
19880;DHT22;10102;50.828;4.416;2023-06-10T05:56:06;23.80;99.90
19880;DHT22;10102;50.828;4.416;2023-06-10T05:58:31;23.70;99.90
19880;DHT22;10102;50.828;4.416;2023-06-10T06:00:57;24.00;99.90
19880;DHT22;10102;50.828;4.416;2023-06-10T06:03:23;24.30;99.90
19880;DHT22;10102;50.828;4.416;2023-06-10T06:05:48;24.30;99.90
19880;DHT22;10102;50.828;4.416;2023-06-10T06:08:14;24.40;99.90
19880;DHT22;10102;50.828;4.416;2023-06-10T06:10:43;24.20;99.90
19880;DHT22;10102;50.828;4.416;2023-06-10T06:13:08;24.40;99.90
19880;DHT22;10102;50.828;4.416;2023-06-10T06:15:34;24.50;99.90
19880;DHT22;10102;50.828;4.416;2023-06-10T06:18:00;24.50;99.90
19880;DHT22;10102;50.828;4.416;2023-06-10T06:20:26;24.70;99.90
19880;DHT22;10102;50.828;4.416;2023-06-10T06:22:52;24.80;99.90
19880;DHT22;10102;50.828;4.416;2023-06-10T06:25:17;24.70;99.90
19880;DHT22;10102;50.828;4.416;2023-06-10T06:27:43;24.80;99.90
19880;DHT22;10102;50.828;4.416;2023-06-10T06:30:09;25.00;99.90
19880;DHT22;10102;50.828;4.416;2023-06-10T06:32:35;25.20;99.90
19880;DHT22;10102;50.828;4.416;2023-06-10T06:35:01;25.20;99.90
19880;DHT22;10102;50.828;4.416;2023-06-10T06:37:27;25.20;99.90
19880;DHT22;10102;50.828;4.416;2023-06-10T06:39:53;25.50;99.90
19880;DHT22;10102;50.828;4.416;2023-06-10T06:42:19;25.80;99.90
19880;DHT22;10102;50.828;4.416;2023-06-10T06:44:46;25.70;99.90
19880;DHT22;10102;50.828;4.416;2023-06-10T06:47:12;25.80;99.90
19880;DHT22;10102;50.828;4.416;2023-06-10T06:49:38;25.80;99.90
19880;DHT22;10102;50.828;4.416;2023-06-10T06:52:04;25.80;99.90
19880;DHT22;10102;50.828;4.416;2023-06-10T06:54:30;25.90;99.90
19880;DHT22;10102;50.828;4.416;2023-06-10T06:56:57;25.90;99.90
19880;DHT22;10102;50.828;4.416;2023-06-10T06:59:23;26.10;99.90
19880;DHT22;10102;50.828;4.416;2023-06-10T07:01:49;26.20;99.90
19880;DHT22;10102;50.828;4.416;2023-06-10T07:04:15;26.20;99.90
19880;DHT22;10102;50.828;4.416;2023-06-10T07:06:41;26.20;99.90
19880;DHT22;10102;50.828;4.416;2023-06-10T07:09:08;26.50;99.90
19880;DHT22;10102;50.828;4.416;2023-06-10T07:11:36;26.30;99.90
19880;DHT22;10102;50.828;4.416;2023-06-10T07:14:02;26.40;99.90
19880;DHT22;10102;50.828;4.416;2023-06-10T07:16:27;26.60;99.90
19880;DHT22;10102;50.828;4.416;2023-06-10T07:18:53;26.60;99.90
19880;DHT22;10102;50.828;4.416;2023-06-10T07:21:19;26.60;99.90
19880;DHT22;10102;50.828;4.416;2023-06-10T07:23:45;27.00;99.90
19880;DHT22;10102;50.828;4.416;2023-06-10T07:26:11;26.90;99.90
19880;DHT22;10102;50.828;4.416;2023-06-10T07:28:39;27.00;99.90
19880;DHT22;10102;50.828;4.416;2023-06-10T07:31:06;26.90;99.90
19880;DHT22;10102;50.828;4.416;2023-06-10T07:33:32;26.90;99.90
19880;DHT22;10102;50.828;4.416;2023-06-10T07:35:57;27.00;99.90
19880;DHT22;10102;50.828;4.416;2023-06-10T07:38:24;27.00;99.90
19880;DHT22;10102;50.828;4.416;2023-06-10T07:40:50;27.10;99.90
19880;DHT22;10102;50.828;4.416;2023-06-10T07:43:15;27.20;99.90
19880;DHT22;10102;50.828;4.416;2023-06-10T07:45:41;27.10;99.90
19880;DHT22;10102;50.828;4.416;2023-06-10T07:48:07;27.20;99.90
19880;DHT22;10102;50.828;4.416;2023-06-10T07:50:33;27.30;99.90
19880;DHT22;10102;50.828;4.416;2023-06-10T07:52:58;27.40;99.90
19880;DHT22;10102;50.828;4.416;2023-06-10T07:55:24;27.40;99.90
19880;DHT22;10102;50.828;4.416;2023-06-10T07:57:52;27.50;99.90
19880;DHT22;10102;50.828;4.416;2023-06-10T08:00:18;27.50;99.90
19880;DHT22;10102;50.828;4.416;2023-06-10T08:02:44;27.50;99.90
19880;DHT22;10102;50.828;4.416;2023-06-10T08:05:09;27.50;99.90
19880;DHT22;10102;50.828;4.416;2023-06-10T08:07:35;27.50;99.90
19880;DHT22;10102;50.828;4.416;2023-06-10T08:10:01;27.50;99.90
19880;DHT22;10102;50.828;4.416;2023-06-10T08:12:27;27.40;99.90
19880;DHT22;10102;50.828;4.416;2023-06-10T08:14:52;27.50;99.90
19880;DHT22;10102;50.828;4.416;2023-06-10T08:17:19;27.60;99.90
19880;DHT22;10102;50.828;4.416;2023-06-10T08:19:44;27.60;99.90
19880;DHT22;10102;50.828;4.416;2023-06-10T08:22:10;27.80;99.90
19880;DHT22;10102;50.828;4.416;2023-06-10T08:24:36;27.90;99.90
19880;DHT22;10102;50.828;4.416;2023-06-10T08:27:01;28.00;99.90
19880;DHT22;10102;50.828;4.416;2023-06-10T08:29:27;28.00;99.90
19880;DHT22;10102;50.828;4.416;2023-06-10T08:31:53;28.10;99.90
19880;DHT22;10102;50.828;4.416;2023-06-10T08:34:18;28.20;99.90
19880;DHT22;10102;50.828;4.416;2023-06-10T08:36:44;28.10;99.90
19880;DHT22;10102;50.828;4.416;2023-06-10T08:39:10;28.00;98.90
19880;DHT22;10102;50.828;4.416;2023-06-10T08:41:42;28.00;99.80
19880;DHT22;10102;50.828;4.416;2023-06-10T08:44:16;28.10;99.80
19880;DHT22;10102;50.828;4.416;2023-06-10T08:46:45;28.20;99.50
19880;DHT22;10102;50.828;4.416;2023-06-10T08:49:17;28.40;99.90
19880;DHT22;10102;50.828;4.416;2023-06-10T08:51:43;28.30;99.40
19880;DHT22;10102;50.828;4.416;2023-06-10T08:54:18;28.40;99.70
19880;DHT22;10102;50.828;4.416;2023-06-10T08:56:48;28.40;98.90
19880;DHT22;10102;50.828;4.416;2023-06-10T08:59:15;28.60;99.60
19880;DHT22;10102;50.828;4.416;2023-06-10T09:01:45;28.50;98.90
19880;DHT22;10102;50.828;4.416;2023-06-10T09:04:11;28.60;99.90
19880;DHT22;10102;50.828;4.416;2023-06-10T09:06:37;28.50;98.40
19880;DHT22;10102;50.828;4.416;2023-06-10T09:09:06;28.50;98.70
19880;DHT22;10102;50.828;4.416;2023-06-10T09:11:32;28.50;98.20
19880;DHT22;10102;50.828;4.416;2023-06-10T09:13:57;28.40;98.30
19880;DHT22;10102;50.828;4.416;2023-06-10T09:16:27;28.60;99.90
19880;DHT22;10102;50.828;4.416;2023-06-10T09:18:53;28.60;98.20
19880;DHT22;10102;50.828;4.416;2023-06-10T09:21:23;28.80;97.10
19880;DHT22;10102;50.828;4.416;2023-06-10T09:23:49;28.90;97.40
19880;DHT22;10102;50.828;4.416;2023-06-10T09:26:15;29.10;96.80
19880;DHT22;10102;50.828;4.416;2023-06-10T09:28:47;29.20;97.70
19880;DHT22;10102;50.828;4.416;2023-06-10T09:31:14;29.30;97.90
19880;DHT22;10102;50.828;4.416;2023-06-10T09:33:44;29.50;97.60
19880;DHT22;10102;50.828;4.416;2023-06-10T09:36:10;29.50;97.20
19880;DHT22;10102;50.828;4.416;2023-06-10T09:38:36;29.70;96.80
19880;DHT22;10102;50.828;4.416;2023-06-10T09:41:03;29.80;96.30
19880;DHT22;10102;50.828;4.416;2023-06-10T09:43:43;29.70;95.40
19880;DHT22;10102;50.828;4.416;2023-06-10T09:46:19;29.70;94.80
19880;DHT22;10102;50.828;4.416;2023-06-10T09:48:47;29.80;94.70
19880;DHT22;10102;50.828;4.416;2023-06-10T09:51:14;29.80;94.90
19880;DHT22;10102;50.828;4.416;2023-06-10T09:53:42;29.80;94.30
19880;DHT22;10102;50.828;4.416;2023-06-10T09:56:08;29.80;94.50
19880;DHT22;10102;50.828;4.416;2023-06-10T09:58:35;30.00;99.60
19880;DHT22;10102;50.828;4.416;2023-06-10T10:01:11;30.00;93.80
19880;DHT22;10102;50.828;4.416;2023-06-10T10:03:47;30.00;93.80
19880;DHT22;10102;50.828;4.416;2023-06-10T10:06:15;30.20;94.60
19880;DHT22;10102;50.828;4.416;2023-06-10T10:08:41;30.10;92.90
19880;DHT22;10102;50.828;4.416;2023-06-10T10:11:06;30.30;92.60
19880;DHT22;10102;50.828;4.416;2023-06-10T10:13:34;30.40;92.40
19880;DHT22;10102;50.828;4.416;2023-06-10T10:16:06;30.50;91.60
19880;DHT22;10102;50.828;4.416;2023-06-10T10:18:35;30.50;91.70
19880;DHT22;10102;50.828;4.416;2023-06-10T10:21:07;30.70;90.00
19880;DHT22;10102;50.828;4.416;2023-06-10T10:23:52;30.70;90.60
19880;DHT22;10102;50.828;4.416;2023-06-10T10:26:18;30.90;90.20
19880;DHT22;10102;50.828;4.416;2023-06-10T10:28:57;30.90;89.70
19880;DHT22;10102;50.828;4.416;2023-06-10T10:31:24;30.90;89.60
19880;DHT22;10102;50.828;4.416;2023-06-10T10:33:57;30.90;90.80
19880;DHT22;10102;50.828;4.416;2023-06-10T10:36:24;31.00;88.50
19880;DHT22;10102;50.828;4.416;2023-06-10T10:38:50;31.00;86.90
19880;DHT22;10102;50.828;4.416;2023-06-10T10:41:18;31.10;87.10
19880;DHT22;10102;50.828;4.416;2023-06-10T10:43:44;31.20;85.50
19880;DHT22;10102;50.828;4.416;2023-06-10T10:46:15;31.40;84.00
19880;DHT22;10102;50.828;4.416;2023-06-10T10:48:42;31.40;84.10
19880;DHT22;10102;50.828;4.416;2023-06-10T10:51:08;31.40;83.30
19880;DHT22;10102;50.828;4.416;2023-06-10T10:53:36;31.50;83.90
19880;DHT22;10102;50.828;4.416;2023-06-10T10:56:05;31.50;84.40
19880;DHT22;10102;50.828;4.416;2023-06-10T10:58:32;31.70;91.30
19880;DHT22;10102;50.828;4.416;2023-06-10T11:00:58;31.70;80.60
19880;DHT22;10102;50.828;4.416;2023-06-10T11:03:28;31.80;82.10
19880;DHT22;10102;50.828;4.416;2023-06-10T11:05:57;31.80;81.10
19880;DHT22;10102;50.828;4.416;2023-06-10T11:10:57;31.80;75.30
19880;DHT22;10102;50.828;4.416;2023-06-10T11:13:23;32.00;75.80
19880;DHT22;10102;50.828;4.416;2023-06-10T11:15:50;32.10;77.60
19880;DHT22;10102;50.828;4.416;2023-06-10T11:18:27;32.10;78.40
19880;DHT22;10102;50.828;4.416;2023-06-10T11:20:58;32.20;79.10
19880;DHT22;10102;50.828;4.416;2023-06-10T11:26:13;32.40;78.10
19880;DHT22;10102;50.828;4.416;2023-06-10T11:28:40;32.70;78.90
19880;DHT22;10102;50.828;4.416;2023-06-10T11:31:06;33.00;77.10
19880;DHT22;10102;50.828;4.416;2023-06-10T11:33:32;33.50;77.50
19880;DHT22;10102;50.828;4.416;2023-06-10T11:35:58;34.10;73.20
19880;DHT22;10102;50.828;4.416;2023-06-10T11:38:24;34.90;70.50
19880;DHT22;10102;50.828;4.416;2023-06-10T11:40:51;36.20;69.20
19880;DHT22;10102;50.828;4.416;2023-06-10T11:43:17;37.70;65.70
19880;DHT22;10102;50.828;4.416;2023-06-10T11:45:43;39.50;62.00
19880;DHT22;10102;50.828;4.416;2023-06-10T11:48:09;41.20;58.20
19880;DHT22;10102;50.828;4.416;2023-06-10T11:50:36;43.10;56.20
19880;DHT22;10102;50.828;4.416;2023-06-10T11:53:02;44.10;50.60
19880;DHT22;10102;50.828;4.416;2023-06-10T11:55:50;45.20;49.50
19880;DHT22;10102;50.828;4.416;2023-06-10T11:58:17;46.80;46.50
19880;DHT22;10102;50.828;4.416;2023-06-10T12:00:55;47.80;45.10
19880;DHT22;10102;50.828;4.416;2023-06-10T12:03:27;48.70;44.60
19880;DHT22;10102;50.828;4.416;2023-06-10T12:06:04;49.90;42.30
19880;DHT22;10102;50.828;4.416;2023-06-10T12:08:30;48.00;42.50
19880;DHT22;10102;50.828;4.416;2023-06-10T12:10:56;46.00;44.80
19880;DHT22;10102;50.828;4.416;2023-06-10T12:13:23;45.40;44.50
19880;DHT22;10102;50.828;4.416;2023-06-10T12:15:49;46.20;43.90
19880;DHT22;10102;50.828;4.416;2023-06-10T12:18:24;47.60;43.20
19880;DHT22;10102;50.828;4.416;2023-06-10T12:20:51;49.20;42.20
19880;DHT22;10102;50.828;4.416;2023-06-10T12:23:17;50.40;40.90
19880;DHT22;10102;50.828;4.416;2023-06-10T12:25:54;50.40;40.10
19880;DHT22;10102;50.828;4.416;2023-06-10T12:28:24;51.20;39.60
19880;DHT22;10102;50.828;4.416;2023-06-10T12:30:50;52.10;38.70
19880;DHT22;10102;50.828;4.416;2023-06-10T12:33:22;52.40;38.00
19880;DHT22;10102;50.828;4.416;2023-06-10T12:35:52;53.40;37.60
19880;DHT22;10102;50.828;4.416;2023-06-10T12:38:25;54.00;36.90
19880;DHT22;10102;50.828;4.416;2023-06-10T12:40:57;53.70;36.40
19880;DHT22;10102;50.828;4.416;2023-06-10T12:43:26;54.60;36.10
19880;DHT22;10102;50.828;4.416;2023-06-10T12:45:52;54.00;36.20
19880;DHT22;10102;50.828;4.416;2023-06-10T12:48:18;54.40;35.50
19880;DHT22;10102;50.828;4.416;2023-06-10T12:50:49;54.30;35.00
19880;DHT22;10102;50.828;4.416;2023-06-10T12:53:15;55.00;36.30
19880;DHT22;10102;50.828;4.416;2023-06-10T12:55:40;55.10;34.80
19880;DHT22;10102;50.828;4.416;2023-06-10T12:58:06;55.70;35.00
19880;DHT22;10102;50.828;4.416;2023-06-10T13:00:32;54.90;34.20
19880;DHT22;10102;50.828;4.416;2023-06-10T13:03:01;54.50;34.60
19880;DHT22;10102;50.828;4.416;2023-06-10T13:05:27;54.70;35.60
19880;DHT22;10102;50.828;4.416;2023-06-10T13:07:54;55.10;35.20
19880;DHT22;10102;50.828;4.416;2023-06-10T13:10:21;55.90;34.50
19880;DHT22;10102;50.828;4.416;2023-06-10T13:12:46;54.70;34.00
19880;DHT22;10102;50.828;4.416;2023-06-10T13:15:14;54.50;34.80
19880;DHT22;10102;50.828;4.416;2023-06-10T13:17:40;54.60;34.90
19880;DHT22;10102;50.828;4.416;2023-06-10T13:20:07;53.00;35.80
19880;DHT22;10102;50.828;4.416;2023-06-10T13:22:33;53.30;36.30
19880;DHT22;10102;50.828;4.416;2023-06-10T13:25:01;54.30;35.40
19880;DHT22;10102;50.828;4.416;2023-06-10T13:27:27;54.50;34.10
19880;DHT22;10102;50.828;4.416;2023-06-10T13:29:53;54.90;34.00
19880;DHT22;10102;50.828;4.416;2023-06-10T13:32:18;54.00;34.90
19880;DHT22;10102;50.828;4.416;2023-06-10T13:34:44;55.00;34.30
19880;DHT22;10102;50.828;4.416;2023-06-10T13:37:10;54.70;33.80
19880;DHT22;10102;50.828;4.416;2023-06-10T13:39:38;52.50;35.20
19880;DHT22;10102;50.828;4.416;2023-06-10T13:42:04;51.40;36.10
19880;DHT22;10102;50.828;4.416;2023-06-10T13:44:30;51.90;35.80
19880;DHT22;10102;50.828;4.416;2023-06-10T13:46:59;52.30;35.20
19880;DHT22;10102;50.828;4.416;2023-06-10T13:49:25;52.70;35.00
19880;DHT22;10102;50.828;4.416;2023-06-10T13:51:51;53.50;35.00
19880;DHT22;10102;50.828;4.416;2023-06-10T13:54:17;54.40;33.90
19880;DHT22;10102;50.828;4.416;2023-06-10T13:56:43;55.10;33.10
19880;DHT22;10102;50.828;4.416;2023-06-10T13:59:09;55.70;32.60
19880;DHT22;10102;50.828;4.416;2023-06-10T14:01:34;55.80;32.50
19880;DHT22;10102;50.828;4.416;2023-06-10T14:04:00;55.30;33.00
19880;DHT22;10102;50.828;4.416;2023-06-10T14:06:26;54.40;33.00
19880;DHT22;10102;50.828;4.416;2023-06-10T14:08:52;55.10;32.50
19880;DHT22;10102;50.828;4.416;2023-06-10T14:11:20;55.80;32.80
19880;DHT22;10102;50.828;4.416;2023-06-10T14:13:46;55.90;32.30
19880;DHT22;10102;50.828;4.416;2023-06-10T14:16:12;55.50;32.80
19880;DHT22;10102;50.828;4.416;2023-06-10T14:18:38;54.80;32.40
19880;DHT22;10102;50.828;4.416;2023-06-10T14:21:04;55.20;33.00
19880;DHT22;10102;50.828;4.416;2023-06-10T14:23:30;55.20;32.50
19880;DHT22;10102;50.828;4.416;2023-06-10T14:25:56;54.80;32.30
19880;DHT22;10102;50.828;4.416;2023-06-10T14:28:21;54.30;32.60
19880;DHT22;10102;50.828;4.416;2023-06-10T14:30:47;53.60;33.00
19880;DHT22;10102;50.828;4.416;2023-06-10T14:33:13;53.70;33.40
19880;DHT22;10102;50.828;4.416;2023-06-10T14:35:39;53.80;33.50
19880;DHT22;10102;50.828;4.416;2023-06-10T14:38:05;55.20;32.90
19880;DHT22;10102;50.828;4.416;2023-06-10T14:40:31;56.30;32.80
19880;DHT22;10102;50.828;4.416;2023-06-10T14:42:57;56.80;31.90
19880;DHT22;10102;50.828;4.416;2023-06-10T14:45:23;56.90;31.20
19880;DHT22;10102;50.828;4.416;2023-06-10T14:47:50;56.80;31.50
19880;DHT22;10102;50.828;4.416;2023-06-10T14:50:16;57.60;31.50
19880;DHT22;10102;50.828;4.416;2023-06-10T14:52:41;57.60;31.00
19880;DHT22;10102;50.828;4.416;2023-06-10T14:55:07;57.20;31.10
19880;DHT22;10102;50.828;4.416;2023-06-10T14:57:33;55.50;30.80
19880;DHT22;10102;50.828;4.416;2023-06-10T14:59:58;55.20;32.10
19880;DHT22;10102;50.828;4.416;2023-06-10T15:02:24;55.30;32.60
19880;DHT22;10102;50.828;4.416;2023-06-10T15:04:50;55.60;32.30
19880;DHT22;10102;50.828;4.416;2023-06-10T15:07:16;54.50;32.10
19880;DHT22;10102;50.828;4.416;2023-06-10T15:09:43;54.30;33.00
19880;DHT22;10102;50.828;4.416;2023-06-10T15:12:09;53.20;33.40
19880;DHT22;10102;50.828;4.416;2023-06-10T15:14:34;53.90;33.10
19880;DHT22;10102;50.828;4.416;2023-06-10T15:17:00;54.00;32.70
19880;DHT22;10102;50.828;4.416;2023-06-10T15:19:26;53.80;33.30
19880;DHT22;10102;50.828;4.416;2023-06-10T15:21:53;54.30;33.30
19880;DHT22;10102;50.828;4.416;2023-06-10T15:24:18;54.20;32.90
19880;DHT22;10102;50.828;4.416;2023-06-10T15:26:44;53.30;33.20
19880;DHT22;10102;50.828;4.416;2023-06-10T15:29:10;53.50;33.40
19880;DHT22;10102;50.828;4.416;2023-06-10T15:31:35;53.80;33.50
19880;DHT22;10102;50.828;4.416;2023-06-10T15:34:01;54.20;33.00
19880;DHT22;10102;50.828;4.416;2023-06-10T15:36:27;54.20;32.70
19880;DHT22;10102;50.828;4.416;2023-06-10T15:38:53;53.90;33.10
19880;DHT22;10102;50.828;4.416;2023-06-10T15:41:19;54.30;33.10
19880;DHT22;10102;50.828;4.416;2023-06-10T15:43:45;54.20;33.40
19880;DHT22;10102;50.828;4.416;2023-06-10T15:46:11;53.50;33.70
19880;DHT22;10102;50.828;4.416;2023-06-10T15:48:37;54.00;33.30
19880;DHT22;10102;50.828;4.416;2023-06-10T15:51:03;54.00;33.50
19880;DHT22;10102;50.828;4.416;2023-06-10T15:53:28;54.00;34.00
19880;DHT22;10102;50.828;4.416;2023-06-10T15:55:54;53.80;33.50
19880;DHT22;10102;50.828;4.416;2023-06-10T15:58:20;53.70;33.90